sensor_id;sensor_type;location;lat;lon;timestamp;P1;durP1;ratioP1;P2;durP2;ratioP2
24044;SDS011;26257;49.442;8.422;2023-03-19T00:03:15;14.27;;;7.23;;
24044;SDS011;26257;49.442;8.422;2023-03-19T00:06:01;13.45;;;6.93;;
24044;SDS011;26257;49.442;8.422;2023-03-19T00:09:22;11.07;;;6.50;;
24044;SDS011;26257;49.442;8.422;2023-03-19T00:12:02;11.77;;;7.05;;
24044;SDS011;26257;49.442;8.422;2023-03-19T00:15:01;14.10;;;7.22;;
24044;SDS011;26257;49.442;8.422;2023-03-19T00:17:41;11.73;;;6.82;;
24044;SDS011;26257;49.442;8.422;2023-03-19T00:21:17;18.05;;;7.63;;
24044;SDS011;26257;49.442;8.422;2023-03-19T00:24:36;13.15;;;7.78;;
24044;SDS011;26257;49.442;8.422;2023-03-19T00:27:35;13.43;;;6.75;;
24044;SDS011;26257;49.442;8.422;2023-03-19T00:30:21;17.10;;;8.32;;
24044;SDS011;26257;49.442;8.422;2023-03-19T00:32:51;16.48;;;7.45;;
24044;SDS011;26257;49.442;8.422;2023-03-19T00:35:19;10.40;;;6.25;;
24044;SDS011;26257;49.442;8.422;2023-03-19T00:38:10;16.40;;;7.83;;
24044;SDS011;26257;49.442;8.422;2023-03-19T00:40:36;15.15;;;7.65;;
24044;SDS011;26257;49.442;8.422;2023-03-19T00:43:02;15.18;;;7.40;;
24044;SDS011;26257;49.442;8.422;2023-03-19T00:45:37;13.68;;;7.28;;
24044;SDS011;26257;49.442;8.422;2023-03-19T00:48:17;15.85;;;7.35;;
24044;SDS011;26257;49.442;8.422;2023-03-19T00:50:43;17.20;;;7.72;;
24044;SDS011;26257;49.442;8.422;2023-03-19T00:53:08;16.80;;;8.13;;
24044;SDS011;26257;49.442;8.422;2023-03-19T00:55:36;12.63;;;7.13;;
24044;SDS011;26257;49.442;8.422;2023-03-19T00:58:04;14.98;;;7.50;;
24044;SDS011;26257;49.442;8.422;2023-03-19T01:00:33;16.63;;;7.40;;
24044;SDS011;26257;49.442;8.422;2023-03-19T01:03:00;15.80;;;7.63;;
24044;SDS011;26257;49.442;8.422;2023-03-19T01:05:30;13.75;;;7.25;;
24044;SDS011;26257;49.442;8.422;2023-03-19T01:07:57;15.45;;;7.40;;
24044;SDS011;26257;49.442;8.422;2023-03-19T01:10:23;12.52;;;7.28;;
24044;SDS011;26257;49.442;8.422;2023-03-19T01:12:49;16.60;;;7.18;;
24044;SDS011;26257;49.442;8.422;2023-03-19T01:15:16;12.98;;;6.70;;
24044;SDS011;26257;49.442;8.422;2023-03-19T01:17:48;14.05;;;6.90;;
24044;SDS011;26257;49.442;8.422;2023-03-19T01:20:15;13.20;;;7.10;;
24044;SDS011;26257;49.442;8.422;2023-03-19T01:22:42;13.15;;;7.55;;
24044;SDS011;26257;49.442;8.422;2023-03-19T01:25:09;9.77;;;6.43;;
24044;SDS011;26257;49.442;8.422;2023-03-19T01:27:36;11.80;;;6.80;;
24044;SDS011;26257;49.442;8.422;2023-03-19T01:30:04;12.43;;;6.70;;
24044;SDS011;26257;49.442;8.422;2023-03-19T01:32:31;15.55;;;6.57;;
24044;SDS011;26257;49.442;8.422;2023-03-19T01:35:01;18.20;;;7.10;;
24044;SDS011;26257;49.442;8.422;2023-03-19T01:37:29;12.15;;;6.80;;
24044;SDS011;26257;49.442;8.422;2023-03-19T01:39:59;14.52;;;6.63;;
24044;SDS011;26257;49.442;8.422;2023-03-19T01:42:33;15.02;;;7.00;;
24044;SDS011;26257;49.442;8.422;2023-03-19T01:48:49;15.32;;;7.70;;
24044;SDS011;26257;49.442;8.422;2023-03-19T01:51:38;11.65;;;6.97;;
24044;SDS011;26257;49.442;8.422;2023-03-19T01:54:20;15.65;;;7.25;;
24044;SDS011;26257;49.442;8.422;2023-03-19T01:57:39;13.95;;;6.60;;
24044;SDS011;26257;49.442;8.422;2023-03-19T02:00:32;15.15;;;7.10;;
24044;SDS011;26257;49.442;8.422;2023-03-19T02:03:06;13.38;;;7.10;;
24044;SDS011;26257;49.442;8.422;2023-03-19T02:05:35;16.45;;;6.90;;
24044;SDS011;26257;49.442;8.422;2023-03-19T02:08:02;15.88;;;8.07;;
24044;SDS011;26257;49.442;8.422;2023-03-19T02:10:34;13.30;;;6.70;;
24044;SDS011;26257;49.442;8.422;2023-03-19T02:13:01;13.27;;;6.85;;
24044;SDS011;26257;49.442;8.422;2023-03-19T02:15:29;12.75;;;7.22;;
24044;SDS011;26257;49.442;8.422;2023-03-19T02:18:01;14.82;;;7.25;;
24044;SDS011;26257;49.442;8.422;2023-03-19T02:20:31;15.77;;;7.47;;
24044;SDS011;26257;49.442;8.422;2023-03-19T02:26:09;12.10;;;6.63;;
24044;SDS011;26257;49.442;8.422;2023-03-19T02:31:22;14.02;;;6.47;;
24044;SDS011;26257;49.442;8.422;2023-03-19T02:33:55;10.75;;;6.68;;
24044;SDS011;26257;49.442;8.422;2023-03-19T02:36:37;12.90;;;7.03;;
24044;SDS011;26257;49.442;8.422;2023-03-19T02:39:33;12.18;;;6.72;;
24044;SDS011;26257;49.442;8.422;2023-03-19T02:42:30;15.18;;;7.05;;
24044;SDS011;26257;49.442;8.422;2023-03-19T02:44:56;13.35;;;6.65;;
24044;SDS011;26257;49.442;8.422;2023-03-19T02:50:25;12.30;;;6.82;;
24044;SDS011;26257;49.442;8.422;2023-03-19T02:53:24;12.27;;;7.13;;
24044;SDS011;26257;49.442;8.422;2023-03-19T02:57:10;13.02;;;6.97;;
24044;SDS011;26257;49.442;8.422;2023-03-19T03:00:01;12.88;;;6.65;;
24044;SDS011;26257;49.442;8.422;2023-03-19T03:03:31;15.15;;;6.57;;
24044;SDS011;26257;49.442;8.422;2023-03-19T03:06:02;11.40;;;7.18;;
24044;SDS011;26257;49.442;8.422;2023-03-19T03:08:31;14.60;;;7.13;;
24044;SDS011;26257;49.442;8.422;2023-03-19T03:10:58;11.80;;;6.68;;
24044;SDS011;26257;49.442;8.422;2023-03-19T03:13:24;15.45;;;7.50;;
24044;SDS011;26257;49.442;8.422;2023-03-19T03:15:55;13.52;;;7.10;;
24044;SDS011;26257;49.442;8.422;2023-03-19T03:18:24;11.38;;;6.40;;
24044;SDS011;26257;49.442;8.422;2023-03-19T03:20:54;10.48;;;6.32;;
24044;SDS011;26257;49.442;8.422;2023-03-19T03:24:02;10.93;;;6.72;;
24044;SDS011;26257;49.442;8.422;2023-03-19T03:26:55;13.82;;;6.45;;
24044;SDS011;26257;49.442;8.422;2023-03-19T03:29:56;11.77;;;6.95;;
24044;SDS011;26257;49.442;8.422;2023-03-19T03:33:12;13.60;;;6.93;;
24044;SDS011;26257;49.442;8.422;2023-03-19T03:36:41;12.52;;;6.80;;
24044;SDS011;26257;49.442;8.422;2023-03-19T03:43:50;12.43;;;6.47;;
24044;SDS011;26257;49.442;8.422;2023-03-19T03:46:35;13.55;;;6.40;;
24044;SDS011;26257;49.442;8.422;2023-03-19T03:49:14;15.07;;;6.68;;
24044;SDS011;26257;49.442;8.422;2023-03-19T03:51:55;11.68;;;6.53;;
24044;SDS011;26257;49.442;8.422;2023-03-19T03:54:29;15.85;;;6.70;;
24044;SDS011;26257;49.442;8.422;2023-03-19T03:57:18;11.43;;;6.32;;
24044;SDS011;26257;49.442;8.422;2023-03-19T04:00:06;10.90;;;6.45;;
24044;SDS011;26257;49.442;8.422;2023-03-19T04:02:36;11.77;;;6.30;;
24044;SDS011;26257;49.442;8.422;2023-03-19T04:05:08;11.13;;;6.32;;
24044;SDS011;26257;49.442;8.422;2023-03-19T04:08:07;15.32;;;6.40;;
24044;SDS011;26257;49.442;8.422;2023-03-19T04:10:48;12.52;;;6.57;;
24044;SDS011;26257;49.442;8.422;2023-03-19T04:13:24;21.80;;;6.82;;
24044;SDS011;26257;49.442;8.422;2023-03-19T04:15:53;11.18;;;5.80;;
24044;SDS011;26257;49.442;8.422;2023-03-19T04:18:20;13.57;;;5.63;;
24044;SDS011;26257;49.442;8.422;2023-03-19T04:20:53;11.05;;;6.03;;
24044;SDS011;26257;49.442;8.422;2023-03-19T04:23:24;8.65;;;5.50;;
24044;SDS011;26257;49.442;8.422;2023-03-19T04:26:14;11.68;;;5.88;;
24044;SDS011;26257;49.442;8.422;2023-03-19T04:29:02;9.30;;;5.60;;
24044;SDS011;26257;49.442;8.422;2023-03-19T04:31:36;8.43;;;4.88;;
24044;SDS011;26257;49.442;8.422;2023-03-19T04:34:06;9.02;;;4.93;;
24044;SDS011;26257;49.442;8.422;2023-03-19T04:36:32;12.57;;;5.40;;
24044;SDS011;26257;49.442;8.422;2023-03-19T04:38:58;12.10;;;5.13;;
24044;SDS011;26257;49.442;8.422;2023-03-19T04:41:23;11.02;;;4.65;;
24044;SDS011;26257;49.442;8.422;2023-03-19T04:43:50;13.27;;;5.78;;
24044;SDS011;26257;49.442;8.422;2023-03-19T04:46:15;9.85;;;4.70;;
24044;SDS011;26257;49.442;8.422;2023-03-19T04:48:41;11.82;;;5.43;;
24044;SDS011;26257;49.442;8.422;2023-03-19T04:51:06;12.80;;;5.50;;
24044;SDS011;26257;49.442;8.422;2023-03-19T04:53:35;11.25;;;5.28;;
24044;SDS011;26257;49.442;8.422;2023-03-19T04:56:02;11.88;;;5.53;;
24044;SDS011;26257;49.442;8.422;2023-03-19T04:58:28;10.82;;;4.90;;
24044;SDS011;26257;49.442;8.422;2023-03-19T05:00:54;9.75;;;5.10;;
24044;SDS011;26257;49.442;8.422;2023-03-19T05:03:19;12.30;;;5.50;;
24044;SDS011;26257;49.442;8.422;2023-03-19T05:05:46;9.98;;;5.15;;
24044;SDS011;26257;49.442;8.422;2023-03-19T05:08:11;9.57;;;4.88;;
24044;SDS011;26257;49.442;8.422;2023-03-19T05:10:37;9.32;;;5.32;;
24044;SDS011;26257;49.442;8.422;2023-03-19T05:13:04;10.55;;;5.28;;
24044;SDS011;26257;49.442;8.422;2023-03-19T05:15:31;11.00;;;4.97;;
24044;SDS011;26257;49.442;8.422;2023-03-19T05:17:56;11.52;;;5.03;;
24044;SDS011;26257;49.442;8.422;2023-03-19T05:20:22;9.40;;;4.85;;
24044;SDS011;26257;49.442;8.422;2023-03-19T05:22:47;9.48;;;5.65;;
24044;SDS011;26257;49.442;8.422;2023-03-19T05:25:13;10.15;;;5.30;;
24044;SDS011;26257;49.442;8.422;2023-03-19T05:27:39;12.95;;;5.50;;
24044;SDS011;26257;49.442;8.422;2023-03-19T05:30:05;12.93;;;5.50;;
24044;SDS011;26257;49.442;8.422;2023-03-19T05:32:31;11.13;;;5.18;;
24044;SDS011;26257;49.442;8.422;2023-03-19T05:34:57;9.25;;;5.30;;
24044;SDS011;26257;49.442;8.422;2023-03-19T05:37:23;10.93;;;5.43;;
24044;SDS011;26257;49.442;8.422;2023-03-19T05:39:50;9.95;;;5.95;;
24044;SDS011;26257;49.442;8.422;2023-03-19T05:42:15;10.00;;;5.35;;
24044;SDS011;26257;49.442;8.422;2023-03-19T05:44:41;12.05;;;5.78;;
24044;SDS011;26257;49.442;8.422;2023-03-19T05:47:07;8.55;;;5.00;;
24044;SDS011;26257;49.442;8.422;2023-03-19T05:49:33;11.75;;;5.68;;
24044;SDS011;26257;49.442;8.422;2023-03-19T05:51:59;9.05;;;4.93;;
24044;SDS011;26257;49.442;8.422;2023-03-19T05:54:24;9.20;;;4.93;;
24044;SDS011;26257;49.442;8.422;2023-03-19T05:56:50;10.98;;;4.70;;
24044;SDS011;26257;49.442;8.422;2023-03-19T05:59:15;9.25;;;5.13;;
24044;SDS011;26257;49.442;8.422;2023-03-19T06:01:41;8.95;;;5.25;;
24044;SDS011;26257;49.442;8.422;2023-03-19T06:04:06;10.00;;;5.18;;
24044;SDS011;26257;49.442;8.422;2023-03-19T06:06:32;11.65;;;5.80;;
24044;SDS011;26257;49.442;8.422;2023-03-19T06:08:58;10.80;;;5.00;;
24044;SDS011;26257;49.442;8.422;2023-03-19T06:11:23;12.68;;;4.95;;
24044;SDS011;26257;49.442;8.422;2023-03-19T06:13:49;9.05;;;5.10;;
24044;SDS011;26257;49.442;8.422;2023-03-19T06:16:14;13.73;;;5.10;;
24044;SDS011;26257;49.442;8.422;2023-03-19T06:18:40;9.45;;;4.72;;
24044;SDS011;26257;49.442;8.422;2023-03-19T06:21:06;14.75;;;5.30;;
24044;SDS011;26257;49.442;8.422;2023-03-19T06:23:31;13.20;;;5.40;;
24044;SDS011;26257;49.442;8.422;2023-03-19T06:25:56;9.13;;;4.57;;
24044;SDS011;26257;49.442;8.422;2023-03-19T06:28:22;10.45;;;4.82;;
24044;SDS011;26257;49.442;8.422;2023-03-19T06:30:47;13.98;;;5.15;;
24044;SDS011;26257;49.442;8.422;2023-03-19T06:33:13;12.25;;;5.07;;
24044;SDS011;26257;49.442;8.422;2023-03-19T06:35:38;9.95;;;4.85;;
24044;SDS011;26257;49.442;8.422;2023-03-19T06:38:04;8.57;;;4.78;;
24044;SDS011;26257;49.442;8.422;2023-03-19T06:40:31;10.85;;;4.70;;
24044;SDS011;26257;49.442;8.422;2023-03-19T06:42:56;8.65;;;4.90;;
24044;SDS011;26257;49.442;8.422;2023-03-19T06:45:23;8.80;;;5.00;;
24044;SDS011;26257;49.442;8.422;2023-03-19T06:47:49;10.32;;;5.10;;
24044;SDS011;26257;49.442;8.422;2023-03-19T06:50:15;9.13;;;4.60;;
24044;SDS011;26257;49.442;8.422;2023-03-19T06:52:41;12.35;;;4.95;;
24044;SDS011;26257;49.442;8.422;2023-03-19T06:55:08;9.00;;;5.07;;
24044;SDS011;26257;49.442;8.422;2023-03-19T06:57:35;8.25;;;4.72;;
24044;SDS011;26257;49.442;8.422;2023-03-19T07:00:01;7.35;;;4.78;;
24044;SDS011;26257;49.442;8.422;2023-03-19T07:02:28;10.00;;;5.32;;
24044;SDS011;26257;49.442;8.422;2023-03-19T07:04:54;9.85;;;4.95;;
24044;SDS011;26257;49.442;8.422;2023-03-19T07:07:20;82.63;;;46.60;;
24044;SDS011;26257;49.442;8.422;2023-03-19T07:09:45;75.82;;;45.25;;
24044;SDS011;26257;49.442;8.422;2023-03-19T07:12:11;17.30;;;5.97;;
24044;SDS011;26257;49.442;8.422;2023-03-19T07:14:37;12.60;;;5.60;;
24044;SDS011;26257;49.442;8.422;2023-03-19T07:17:02;9.20;;;4.82;;
24044;SDS011;26257;49.442;8.422;2023-03-19T07:19:28;11.50;;;6.28;;
24044;SDS011;26257;49.442;8.422;2023-03-19T07:21:53;11.73;;;5.20;;
24044;SDS011;26257;49.442;8.422;2023-03-19T07:24:20;14.27;;;5.15;;
24044;SDS011;26257;49.442;8.422;2023-03-19T07:26:45;10.63;;;5.15;;
24044;SDS011;26257;49.442;8.422;2023-03-19T07:29:11;13.18;;;5.18;;
24044;SDS011;26257;49.442;8.422;2023-03-19T07:31:37;10.05;;;5.07;;
24044;SDS011;26257;49.442;8.422;2023-03-19T07:34:02;10.40;;;4.63;;
24044;SDS011;26257;49.442;8.422;2023-03-19T07:36:28;11.20;;;4.93;;
24044;SDS011;26257;49.442;8.422;2023-03-19T07:38:53;9.50;;;4.75;;
24044;SDS011;26257;49.442;8.422;2023-03-19T07:41:19;11.27;;;5.15;;
24044;SDS011;26257;49.442;8.422;2023-03-19T07:43:44;11.60;;;5.35;;
24044;SDS011;26257;49.442;8.422;2023-03-19T07:46:10;11.60;;;4.97;;
24044;SDS011;26257;49.442;8.422;2023-03-19T07:48:35;11.50;;;5.28;;
24044;SDS011;26257;49.442;8.422;2023-03-19T07:51:02;8.93;;;5.45;;
24044;SDS011;26257;49.442;8.422;2023-03-19T07:53:28;13.43;;;7.00;;
24044;SDS011;26257;49.442;8.422;2023-03-19T07:55:53;12.10;;;6.43;;
24044;SDS011;26257;49.442;8.422;2023-03-19T07:58:19;24.30;;;12.90;;
24044;SDS011;26257;49.442;8.422;2023-03-19T08:21:32;13.60;;;6.43;;
24044;SDS011;26257;49.442;8.422;2023-03-19T08:23:57;10.68;;;5.38;;
24044;SDS011;26257;49.442;8.422;2023-03-19T08:26:23;12.68;;;5.55;;
24044;SDS011;26257;49.442;8.422;2023-03-19T08:28:48;12.13;;;6.05;;
24044;SDS011;26257;49.442;8.422;2023-03-19T08:31:13;10.32;;;5.82;;
24044;SDS011;26257;49.442;8.422;2023-03-19T08:33:39;10.77;;;5.22;;
24044;SDS011;26257;49.442;8.422;2023-03-19T08:36:14;24.60;;;14.77;;
24044;SDS011;26257;49.442;8.422;2023-03-19T08:38:40;40.85;;;24.42;;
24044;SDS011;26257;49.442;8.422;2023-03-19T08:41:06;28.77;;;16.23;;
24044;SDS011;26257;49.442;8.422;2023-03-19T08:43:33;7.97;;;4.55;;
24044;SDS011;26257;49.442;8.422;2023-03-19T08:46:00;21.30;;;12.18;;
24044;SDS011;26257;49.442;8.422;2023-03-19T08:48:26;44.15;;;27.27;;
24044;SDS011;26257;49.442;8.422;2023-03-19T08:50:53;26.23;;;15.07;;
24044;SDS011;26257;49.442;8.422;2023-03-19T08:53:20;11.43;;;6.13;;
24044;SDS011;26257;49.442;8.422;2023-03-19T08:55:49;9.50;;;4.60;;
24044;SDS011;26257;49.442;8.422;2023-03-19T08:58:16;7.50;;;4.20;;
24044;SDS011;26257;49.442;8.422;2023-03-19T09:00:42;9.52;;;4.13;;
24044;SDS011;26257;49.442;8.422;2023-03-19T09:03:08;9.35;;;4.25;;
24044;SDS011;26257;49.442;8.422;2023-03-19T09:05:34;6.80;;;3.63;;
24044;SDS011;26257;49.442;8.422;2023-03-19T09:08:00;10.48;;;4.00;;
24044;SDS011;26257;49.442;8.422;2023-03-19T09:10:25;8.43;;;3.90;;
24044;SDS011;26257;49.442;8.422;2023-03-19T09:12:51;8.50;;;4.38;;
24044;SDS011;26257;49.442;8.422;2023-03-19T09:15:16;9.32;;;4.80;;
24044;SDS011;26257;49.442;8.422;2023-03-19T09:17:42;10.23;;;5.05;;
24044;SDS011;26257;49.442;8.422;2023-03-19T09:20:08;10.38;;;4.38;;
24044;SDS011;26257;49.442;8.422;2023-03-19T09:22:34;8.15;;;4.43;;
24044;SDS011;26257;49.442;8.422;2023-03-19T09:25:00;7.05;;;4.18;;
24044;SDS011;26257;49.442;8.422;2023-03-19T09:27:25;7.75;;;3.53;;
24044;SDS011;26257;49.442;8.422;2023-03-19T09:29:51;9.77;;;2.97;;
24044;SDS011;26257;49.442;8.422;2023-03-19T09:32:16;9.80;;;3.78;;
24044;SDS011;26257;49.442;8.422;2023-03-19T09:34:42;7.95;;;3.13;;
24044;SDS011;26257;49.442;8.422;2023-03-19T09:37:08;8.70;;;3.75;;
24044;SDS011;26257;49.442;8.422;2023-03-19T09:39:35;10.65;;;3.83;;
24044;SDS011;26257;49.442;8.422;2023-03-19T09:44:48;5.65;;;2.80;;
24044;SDS011;26257;49.442;8.422;2023-03-19T09:47:21;9.30;;;3.42;;
24044;SDS011;26257;49.442;8.422;2023-03-19T09:50:02;8.40;;;3.97;;
24044;SDS011;26257;49.442;8.422;2023-03-19T09:52:34;6.75;;;3.58;;
24044;SDS011;26257;49.442;8.422;2023-03-19T09:55:36;9.05;;;3.65;;
24044;SDS011;26257;49.442;8.422;2023-03-19T09:57:59;9.40;;;3.78;;
24044;SDS011;26257;49.442;8.422;2023-03-19T10:00:33;7.57;;;3.83;;
24044;SDS011;26257;49.442;8.422;2023-03-19T10:08:52;7.28;;;3.05;;
24044;SDS011;26257;49.442;8.422;2023-03-19T10:17:51;14.65;;;8.85;;
24044;SDS011;26257;49.442;8.422;2023-03-19T10:26:08;5.57;;;2.90;;
24044;SDS011;26257;49.442;8.422;2023-03-19T10:28:37;8.18;;;2.80;;
24044;SDS011;26257;49.442;8.422;2023-03-19T10:31:24;4.53;;;2.22;;
24044;SDS011;26257;49.442;8.422;2023-03-19T10:36:36;4.93;;;2.63;;
24044;SDS011;26257;49.442;8.422;2023-03-19T10:39:03;4.68;;;2.20;;
24044;SDS011;26257;49.442;8.422;2023-03-19T10:44:41;9.50;;;2.90;;
24044;SDS011;26257;49.442;8.422;2023-03-19T10:47:14;6.18;;;2.47;;
24044;SDS011;26257;49.442;8.422;2023-03-19T10:49:41;4.82;;;2.15;;
24044;SDS011;26257;49.442;8.422;2023-03-19T10:54:55;6.03;;;2.65;;
24044;SDS011;26257;49.442;8.422;2023-03-19T10:57:27;5.22;;;2.40;;
24044;SDS011;26257;49.442;8.422;2023-03-19T10:59:54;6.65;;;2.50;;
24044;SDS011;26257;49.442;8.422;2023-03-19T11:02:23;6.25;;;2.85;;
24044;SDS011;26257;49.442;8.422;2023-03-19T11:05:18;6.25;;;2.50;;
24044;SDS011;26257;49.442;8.422;2023-03-19T11:08:00;6.60;;;2.22;;
24044;SDS011;26257;49.442;8.422;2023-03-19T11:10:29;6.35;;;2.60;;
24044;SDS011;26257;49.442;8.422;2023-03-19T11:13:05;8.98;;;3.63;;
24044;SDS011;26257;49.442;8.422;2023-03-19T11:15:41;9.15;;;2.88;;
24044;SDS011;26257;49.442;8.422;2023-03-19T11:18:13;8.82;;;2.40;;
24044;SDS011;26257;49.442;8.422;2023-03-19T11:20:43;4.65;;;2.20;;
24044;SDS011;26257;49.442;8.422;2023-03-19T11:23:15;5.05;;;2.25;;
24044;SDS011;26257;49.442;8.422;2023-03-19T11:25:46;4.07;;;2.20;;
24044;SDS011;26257;49.442;8.422;2023-03-19T11:28:19;5.32;;;2.20;;
24044;SDS011;26257;49.442;8.422;2023-03-19T11:34:16;5.53;;;2.00;;
24044;SDS011;26257;49.442;8.422;2023-03-19T11:47:54;7.38;;;2.22;;
24044;SDS011;26257;49.442;8.422;2023-03-19T11:53:33;5.93;;;2.05;;
24044;SDS011;26257;49.442;8.422;2023-03-19T11:56:22;7.63;;;2.25;;
24044;SDS011;26257;49.442;8.422;2023-03-19T12:07:24;9.93;;;2.40;;
24044;SDS011;26257;49.442;8.422;2023-03-19T12:10:06;5.55;;;2.25;;
24044;SDS011;26257;49.442;8.422;2023-03-19T12:21:27;6.80;;;2.20;;
24044;SDS011;26257;49.442;8.422;2023-03-19T12:35:21;6.10;;;2.25;;
24044;SDS011;26257;49.442;8.422;2023-03-19T12:41:22;16.38;;;10.93;;
24044;SDS011;26257;49.442;8.422;2023-03-19T12:43:57;6.25;;;3.00;;
24044;SDS011;26257;49.442;8.422;2023-03-19T12:46:33;5.15;;;2.33;;
24044;SDS011;26257;49.442;8.422;2023-03-19T12:54:11;6.65;;;2.53;;
24044;SDS011;26257;49.442;8.422;2023-03-19T13:01:48;7.03;;;2.72;;
24044;SDS011;26257;49.442;8.422;2023-03-19T13:04:31;7.70;;;2.42;;
24044;SDS011;26257;49.442;8.422;2023-03-19T13:07:16;6.07;;;2.13;;
24044;SDS011;26257;49.442;8.422;2023-03-19T13:09:52;6.63;;;2.45;;
24044;SDS011;26257;49.442;8.422;2023-03-19T13:12:34;7.70;;;2.80;;
24044;SDS011;26257;49.442;8.422;2023-03-19T13:20:56;6.05;;;2.33;;
24044;SDS011;26257;49.442;8.422;2023-03-19T13:23:42;5.10;;;2.30;;
24044;SDS011;26257;49.442;8.422;2023-03-19T13:26:11;7.13;;;2.70;;
24044;SDS011;26257;49.442;8.422;2023-03-19T13:28:51;8.25;;;2.45;;
24044;SDS011;26257;49.442;8.422;2023-03-19T13:31:37;5.38;;;2.53;;
24044;SDS011;26257;49.442;8.422;2023-03-19T13:34:07;7.55;;;2.60;;
24044;SDS011;26257;49.442;8.422;2023-03-19T13:36:41;5.88;;;2.67;;
24044;SDS011;26257;49.442;8.422;2023-03-19T13:39:19;5.30;;;2.88;;
24044;SDS011;26257;49.442;8.422;2023-03-19T13:41:49;7.20;;;2.78;;
24044;SDS011;26257;49.442;8.422;2023-03-19T13:46:59;7.22;;;3.10;;
24044;SDS011;26257;49.442;8.422;2023-03-19T13:49:34;8.20;;;2.72;;
24044;SDS011;26257;49.442;8.422;2023-03-19T13:52:01;7.22;;;2.95;;
24044;SDS011;26257;49.442;8.422;2023-03-19T13:54:49;6.88;;;2.97;;
24044;SDS011;26257;49.442;8.422;2023-03-19T13:57:32;6.30;;;2.63;;
24044;SDS011;26257;49.442;8.422;2023-03-19T14:02:46;5.93;;;2.67;;
24044;SDS011;26257;49.442;8.422;2023-03-19T14:05:43;6.68;;;2.45;;
24044;SDS011;26257;49.442;8.422;2023-03-19T14:08:14;7.80;;;2.60;;
24044;SDS011;26257;49.442;8.422;2023-03-19T14:10:48;6.47;;;2.60;;
24044;SDS011;26257;49.442;8.422;2023-03-19T14:13:41;5.60;;;2.15;;
24044;SDS011;26257;49.442;8.422;2023-03-19T14:19:08;5.43;;;2.38;;
24044;SDS011;26257;49.442;8.422;2023-03-19T14:27:17;5.95;;;2.72;;
24044;SDS011;26257;49.442;8.422;2023-03-19T14:29:45;5.35;;;2.10;;
24044;SDS011;26257;49.442;8.422;2023-03-19T14:32:15;7.28;;;2.75;;
24044;SDS011;26257;49.442;8.422;2023-03-19T14:34:45;5.57;;;2.45;;
24044;SDS011;26257;49.442;8.422;2023-03-19T14:39:44;5.95;;;2.25;;
24044;SDS011;26257;49.442;8.422;2023-03-19T14:56:10;6.13;;;2.22;;
24044;SDS011;26257;49.442;8.422;2023-03-19T14:58:48;5.65;;;2.28;;
24044;SDS011;26257;49.442;8.422;2023-03-19T15:01:15;6.18;;;2.78;;
24044;SDS011;26257;49.442;8.422;2023-03-19T15:03:42;5.90;;;2.28;;
24044;SDS011;26257;49.442;8.422;2023-03-19T15:06:09;4.28;;;1.73;;
24044;SDS011;26257;49.442;8.422;2023-03-19T15:08:37;5.32;;;2.42;;
24044;SDS011;26257;49.442;8.422;2023-03-19T15:16:38;5.03;;;2.15;;
24044;SDS011;26257;49.442;8.422;2023-03-19T15:19:07;5.70;;;2.22;;
24044;SDS011;26257;49.442;8.422;2023-03-19T15:21:35;34.15;;;20.58;;
24044;SDS011;26257;49.442;8.422;2023-03-19T15:24:01;6.28;;;2.60;;
24044;SDS011;26257;49.442;8.422;2023-03-19T15:26:32;6.38;;;3.90;;
24044;SDS011;26257;49.442;8.422;2023-03-19T15:29:01;5.50;;;1.85;;
24044;SDS011;26257;49.442;8.422;2023-03-19T15:31:43;4.53;;;2.92;;
24044;SDS011;26257;49.442;8.422;2023-03-19T15:34:25;4.18;;;1.60;;
24044;SDS011;26257;49.442;8.422;2023-03-19T15:37:00;3.85;;;1.27;;
24044;SDS011;26257;49.442;8.422;2023-03-19T15:39:48;3.10;;;1.45;;
24044;SDS011;26257;49.442;8.422;2023-03-19T15:42:21;6.75;;;3.15;;
24044;SDS011;26257;49.442;8.422;2023-03-19T15:44:54;3.13;;;1.33;;
24044;SDS011;26257;49.442;8.422;2023-03-19T15:47:31;2.78;;;1.15;;
24044;SDS011;26257;49.442;8.422;2023-03-19T15:52:36;2.75;;;1.27;;
24044;SDS011;26257;49.442;8.422;2023-03-19T15:55:06;1.77;;;0.73;;
24044;SDS011;26257;49.442;8.422;2023-03-19T15:57:35;3.38;;;1.27;;
24044;SDS011;26257;49.442;8.422;2023-03-19T16:00:03;2.90;;;0.90;;
24044;SDS011;26257;49.442;8.422;2023-03-19T16:02:39;3.72;;;1.10;;
24044;SDS011;26257;49.442;8.422;2023-03-19T16:05:21;2.53;;;0.88;;
24044;SDS011;26257;49.442;8.422;2023-03-19T16:07:49;2.85;;;1.05;;
24044;SDS011;26257;49.442;8.422;2023-03-19T16:13:31;2.95;;;1.23;;
24044;SDS011;26257;49.442;8.422;2023-03-19T16:16:18;4.13;;;1.85;;
24044;SDS011;26257;49.442;8.422;2023-03-19T16:18:54;4.38;;;1.73;;
24044;SDS011;26257;49.442;8.422;2023-03-19T16:24:13;2.95;;;1.13;;
24044;SDS011;26257;49.442;8.422;2023-03-19T16:26:48;4.53;;;1.50;;
24044;SDS011;26257;49.442;8.422;2023-03-19T16:29:18;3.08;;;1.27;;
24044;SDS011;26257;49.442;8.422;2023-03-19T16:31:49;3.88;;;1.60;;
24044;SDS011;26257;49.442;8.422;2023-03-19T16:34:39;3.45;;;1.17;;
24044;SDS011;26257;49.442;8.422;2023-03-19T16:42:44;2.88;;;1.17;;
24044;SDS011;26257;49.442;8.422;2023-03-19T16:47:39;5.20;;;1.40;;
24044;SDS011;26257;49.442;8.422;2023-03-19T16:50:05;4.43;;;1.27;;
24044;SDS011;26257;49.442;8.422;2023-03-19T16:52:30;2.55;;;1.00;;
24044;SDS011;26257;49.442;8.422;2023-03-19T16:55:00;2.67;;;1.25;;
24044;SDS011;26257;49.442;8.422;2023-03-19T16:57:30;4.00;;;1.30;;
24044;SDS011;26257;49.442;8.422;2023-03-19T16:59:56;2.53;;;1.00;;
24044;SDS011;26257;49.442;8.422;2023-03-19T17:02:24;3.47;;;1.33;;
24044;SDS011;26257;49.442;8.422;2023-03-19T17:04:51;3.25;;;1.35;;
24044;SDS011;26257;49.442;8.422;2023-03-19T17:07:18;4.63;;;2.08;;
24044;SDS011;26257;49.442;8.422;2023-03-19T17:09:43;3.20;;;1.27;;
24044;SDS011;26257;49.442;8.422;2023-03-19T17:12:13;4.25;;;1.10;;
24044;SDS011;26257;49.442;8.422;2023-03-19T17:14:40;3.13;;;1.10;;
24044;SDS011;26257;49.442;8.422;2023-03-19T17:17:12;2.97;;;1.40;;
24044;SDS011;26257;49.442;8.422;2023-03-19T17:19:44;1.90;;;0.85;;
24044;SDS011;26257;49.442;8.422;2023-03-19T17:22:12;3.50;;;1.23;;
24044;SDS011;26257;49.442;8.422;2023-03-19T17:24:38;2.47;;;1.00;;
24044;SDS011;26257;49.442;8.422;2023-03-19T17:27:04;3.25;;;1.00;;
24044;SDS011;26257;49.442;8.422;2023-03-19T17:29:30;3.60;;;1.00;;
24044;SDS011;26257;49.442;8.422;2023-03-19T17:31:56;2.85;;;1.00;;
24044;SDS011;26257;49.442;8.422;2023-03-19T17:34:27;2.42;;;1.30;;
24044;SDS011;26257;49.442;8.422;2023-03-19T17:36:57;3.25;;;1.00;;
24044;SDS011;26257;49.442;8.422;2023-03-19T17:39:25;3.92;;;1.70;;
24044;SDS011;26257;49.442;8.422;2023-03-19T17:41:54;4.05;;;1.50;;
24044;SDS011;26257;49.442;8.422;2023-03-19T17:44:21;4.18;;;1.48;;
24044;SDS011;26257;49.442;8.422;2023-03-19T17:46:53;3.90;;;1.80;;
24044;SDS011;26257;49.442;8.422;2023-03-19T17:49:27;5.28;;;1.30;;
24044;SDS011;26257;49.442;8.422;2023-03-19T17:51:56;3.28;;;1.40;;
24044;SDS011;26257;49.442;8.422;2023-03-19T17:54:22;3.47;;;1.48;;
24044;SDS011;26257;49.442;8.422;2023-03-19T17:56:50;3.13;;;1.48;;
24044;SDS011;26257;49.442;8.422;2023-03-19T17:59:16;3.65;;;1.42;;
24044;SDS011;26257;49.442;8.422;2023-03-19T18:01:41;3.58;;;1.60;;
24044;SDS011;26257;49.442;8.422;2023-03-19T18:04:15;3.78;;;1.70;;
24044;SDS011;26257;49.442;8.422;2023-03-19T18:06:44;2.70;;;1.20;;
24044;SDS011;26257;49.442;8.422;2023-03-19T18:09:19;3.83;;;1.30;;
24044;SDS011;26257;49.442;8.422;2023-03-19T18:11:47;3.67;;;1.50;;
24044;SDS011;26257;49.442;8.422;2023-03-19T18:14:13;3.15;;;1.55;;
24044;SDS011;26257;49.442;8.422;2023-03-19T18:16:38;4.38;;;1.73;;
24044;SDS011;26257;49.442;8.422;2023-03-19T18:19:10;3.42;;;1.30;;